Aviation Digital Data Service (ADDS)

Output produced by METARs form (1210 UTC 24 March 2017)
found at http://www.aviationweather.gov/adds/metars/
 
HSOB 241100Z 02006KT CAVOK 38/M05 Q1012
TAF HSOB 241100Z 2412/2518 03010G20KT CAVOK 
     TEMPO 2416/2420 6000 NSC 
     TEMPO 2503/2509 4000 HZ
       
TAF HSSJ 241000Z 2412/2518 12005KT 9999 FEW040 SCT120 
     TEMPO 2412/2418 15006G16KT 6000 TSRA FEW045CB BKN090 
     TEMPO 2418/2500 VRB03KT 9999 SCT040 BKN120
       
TAF HSKA 241100Z 2412/2518 VRB03KT CAVOK 
       
HSSS 241200Z 31009KT CAVOK 37/M05 Q1009 NOSIG
TAF HSSS 241100Z 2412/2518 36010G20KT CAVOK 
     TEMPO 2416/2420 6000 NSC 
     TEMPO 2503/2509 4000 HZ
       
HSPN 241100Z 02015KT 6000 29/19 Q1008
TAF HSPN 241100Z 2412/2518 04012G22KT 9999 FEW030 SCT130 
     TEMPO 2416/2419 4000 BLSA 
     BECMG 2419/2421 27006KT